KAWM/AWM METAR and TAF weather

Enter ICAO airport designator
Station Type Date Time Source
KAWM METAR 2018/12/10 23:53 UTC NOAA

KAWM 102353Z AUTO 00000KT 5SM BR CLR 01/00 A3034 RMK AO2 SLP276 T00060000 10044 20006 53014 $


Station Type Date Time Source
KAWM Decoded METAR 2018/12/10 23:53 UTC NOAA

WEST MEMPHIS MUNICIPAL AIRPORT, AR, United States (KAWM) 35-08N 090-14W
Dec 10, 2018 - 06:53 PM EST / 2018.12.10 2353 UTC
Wind: Calm:0
Visibility: 5 mile(s):0
Sky conditions: clear
Weather: mist
Temperature: 33.1 F (0.6 C)
Dew Point: 32.0 F (0.0 C)
Relative Humidity: 95%
Pressure (altimeter): 30.34 in. Hg (1027 hPa)
Pressure tendency: 0.04 inches (1.4 hPa) higher than three hours ago
ob: KAWM 102353Z AUTO 00000KT 5SM BR CLR 01/00 A3034 RMK AO2 SLP276 T00060000 10044 20006 53014
cycle: 0

Station Type Date Time Source
KAWM TAF UTC NOAA

Error!


Example: see airport list